sensor_id;sensor_type;location;lat;lon;timestamp;P1;durP1;ratioP1;P2;durP2;ratioP2
32790;SDS011;19143;59.322;14.502;2023-09-07T00:00:31;1.40;;;1.40;;
32790;SDS011;19143;59.322;14.502;2023-09-07T00:02:57;1.50;;;1.40;;
32790;SDS011;19143;59.322;14.502;2023-09-07T00:05:25;5.20;;;1.50;;
32790;SDS011;19143;59.322;14.502;2023-09-07T00:07:51;1.40;;;1.20;;
32790;SDS011;19143;59.322;14.502;2023-09-07T00:10:18;2.30;;;1.40;;
32790;SDS011;19143;59.322;14.502;2023-09-07T00:12:44;6.83;;;1.80;;
32790;SDS011;19143;59.322;14.502;2023-09-07T00:15:12;1.47;;;1.47;;
32790;SDS011;19143;59.322;14.502;2023-09-07T00:17:39;1.97;;;1.87;;
32790;SDS011;19143;59.322;14.502;2023-09-07T00:20:05;2.20;;;1.67;;
32790;SDS011;19143;59.322;14.502;2023-09-07T00:22:36;3.60;;;1.57;;
32790;SDS011;19143;59.322;14.502;2023-09-07T00:25:03;4.73;;;1.33;;
32790;SDS011;19143;59.322;14.502;2023-09-07T00:27:31;1.53;;;1.50;;
32790;SDS011;19143;59.322;14.502;2023-09-07T00:29:58;1.47;;;1.37;;
32790;SDS011;19143;59.322;14.502;2023-09-07T00:32:26;2.57;;;1.60;;
32790;SDS011;19143;59.322;14.502;2023-09-07T00:34:52;1.77;;;1.47;;
32790;SDS011;19143;59.322;14.502;2023-09-07T00:37:19;3.97;;;1.60;;
32790;SDS011;19143;59.322;14.502;2023-09-07T00:39:45;2.60;;;1.80;;
32790;SDS011;19143;59.322;14.502;2023-09-07T00:42:12;8.57;;;1.80;;
32790;SDS011;19143;59.322;14.502;2023-09-07T00:44:38;3.60;;;1.67;;
32790;SDS011;19143;59.322;14.502;2023-09-07T00:47:05;3.70;;;1.70;;
32790;SDS011;19143;59.322;14.502;2023-09-07T00:49:33;2.50;;;1.57;;
32790;SDS011;19143;59.322;14.502;2023-09-07T00:51:59;1.77;;;1.67;;
32790;SDS011;19143;59.322;14.502;2023-09-07T00:54:26;1.70;;;1.70;;
32790;SDS011;19143;59.322;14.502;2023-09-07T00:56:52;1.73;;;1.63;;
32790;SDS011;19143;59.322;14.502;2023-09-07T00:59:19;3.23;;;1.67;;
32790;SDS011;19143;59.322;14.502;2023-09-07T01:01:45;4.07;;;2.13;;
32790;SDS011;19143;59.322;14.502;2023-09-07T01:04:14;8.90;;;2.10;;
32790;SDS011;19143;59.322;14.502;2023-09-07T01:06:43;6.27;;;1.53;;
32790;SDS011;19143;59.322;14.502;2023-09-07T01:09:14;2.07;;;1.87;;
32790;SDS011;19143;59.322;14.502;2023-09-07T01:11:43;2.13;;;1.93;;
32790;SDS011;19143;59.322;14.502;2023-09-07T01:14:10;6.43;;;1.80;;
32790;SDS011;19143;59.322;14.502;2023-09-07T01:16:36;1.87;;;1.77;;
32790;SDS011;19143;59.322;14.502;2023-09-07T01:19:04;3.57;;;2.10;;
32790;SDS011;19143;59.322;14.502;2023-09-07T01:21:33;3.30;;;1.90;;
32790;SDS011;19143;59.322;14.502;2023-09-07T01:24:00;6.00;;;2.00;;
32790;SDS011;19143;59.322;14.502;2023-09-07T01:26:27;3.97;;;2.10;;
32790;SDS011;19143;59.322;14.502;2023-09-07T01:28:54;2.47;;;1.83;;
32790;SDS011;19143;59.322;14.502;2023-09-07T01:31:21;2.73;;;1.97;;
32790;SDS011;19143;59.322;14.502;2023-09-07T01:33:48;2.10;;;2.00;;
32790;SDS011;19143;59.322;14.502;2023-09-07T01:36:14;2.30;;;2.10;;
32790;SDS011;19143;59.322;14.502;2023-09-07T01:38:42;3.23;;;2.17;;
32790;SDS011;19143;59.322;14.502;2023-09-07T01:41:10;2.17;;;2.07;;
32790;SDS011;19143;59.322;14.502;2023-09-07T01:43:37;2.03;;;1.80;;
32790;SDS011;19143;59.322;14.502;2023-09-07T01:46:05;6.27;;;2.83;;
32790;SDS011;19143;59.322;14.502;2023-09-07T01:48:31;2.63;;;2.33;;
32790;SDS011;19143;59.322;14.502;2023-09-07T01:50:58;4.97;;;2.00;;
32790;SDS011;19143;59.322;14.502;2023-09-07T01:53:24;3.20;;;2.07;;
32790;SDS011;19143;59.322;14.502;2023-09-07T01:55:54;4.27;;;2.40;;
32790;SDS011;19143;59.322;14.502;2023-09-07T01:58:21;2.63;;;2.33;;
32790;SDS011;19143;59.322;14.502;2023-09-07T02:00:49;2.20;;;2.10;;
32790;SDS011;19143;59.322;14.502;2023-09-07T02:03:15;4.30;;;2.80;;
32790;SDS011;19143;59.322;14.502;2023-09-07T02:05:42;2.60;;;2.40;;
32790;SDS011;19143;59.322;14.502;2023-09-07T02:08:10;2.50;;;2.30;;
32790;SDS011;19143;59.322;14.502;2023-09-07T02:10:37;4.23;;;2.70;;
32790;SDS011;19143;59.322;14.502;2023-09-07T02:13:09;4.00;;;2.30;;
32790;SDS011;19143;59.322;14.502;2023-09-07T02:15:39;5.77;;;2.60;;
32790;SDS011;19143;59.322;14.502;2023-09-07T02:18:06;7.10;;;2.90;;
32790;SDS011;19143;59.322;14.502;2023-09-07T02:20:32;4.90;;;2.50;;
32790;SDS011;19143;59.322;14.502;2023-09-07T02:22:59;2.47;;;2.30;;
32790;SDS011;19143;59.322;14.502;2023-09-07T02:25:26;4.57;;;2.80;;
32790;SDS011;19143;59.322;14.502;2023-09-07T02:27:52;2.63;;;2.43;;
32790;SDS011;19143;59.322;14.502;2023-09-07T02:30:20;3.93;;;2.50;;
32790;SDS011;19143;59.322;14.502;2023-09-07T02:32:47;4.60;;;2.83;;
32790;SDS011;19143;59.322;14.502;2023-09-07T02:35:13;3.00;;;2.80;;
32790;SDS011;19143;59.322;14.502;2023-09-07T02:37:40;7.07;;;2.67;;
32790;SDS011;19143;59.322;14.502;2023-09-07T02:40:10;3.93;;;2.70;;
32790;SDS011;19143;59.322;14.502;2023-09-07T02:42:37;2.73;;;2.60;;
32790;SDS011;19143;59.322;14.502;2023-09-07T02:45:04;4.50;;;2.97;;
32790;SDS011;19143;59.322;14.502;2023-09-07T02:47:32;3.60;;;2.40;;
32790;SDS011;19143;59.322;14.502;2023-09-07T02:49:58;3.20;;;2.80;;
32790;SDS011;19143;59.322;14.502;2023-09-07T02:52:25;4.67;;;2.70;;
32790;SDS011;19143;59.322;14.502;2023-09-07T02:54:51;3.00;;;2.80;;
32790;SDS011;19143;59.322;14.502;2023-09-07T02:57:18;4.27;;;2.70;;
32790;SDS011;19143;59.322;14.502;2023-09-07T02:59:44;3.20;;;2.60;;
32790;SDS011;19143;59.322;14.502;2023-09-07T03:02:11;3.33;;;2.60;;
32790;SDS011;19143;59.322;14.502;2023-09-07T03:04:39;2.60;;;2.50;;
32790;SDS011;19143;59.322;14.502;2023-09-07T03:07:05;6.20;;;2.70;;
32790;SDS011;19143;59.322;14.502;2023-09-07T03:09:32;3.83;;;2.80;;
32790;SDS011;19143;59.322;14.502;2023-09-07T03:11:58;5.20;;;3.07;;
32790;SDS011;19143;59.322;14.502;2023-09-07T03:14:25;2.77;;;2.60;;
32790;SDS011;19143;59.322;14.502;2023-09-07T03:16:51;4.90;;;2.30;;
32790;SDS011;19143;59.322;14.502;2023-09-07T03:19:19;3.20;;;2.80;;
32790;SDS011;19143;59.322;14.502;2023-09-07T03:21:47;4.27;;;3.13;;
32790;SDS011;19143;59.322;14.502;2023-09-07T03:24:13;4.77;;;3.10;;
32790;SDS011;19143;59.322;14.502;2023-09-07T03:26:41;4.20;;;2.70;;
32790;SDS011;19143;59.322;14.502;2023-09-07T03:29:08;9.73;;;3.20;;
32790;SDS011;19143;59.322;14.502;2023-09-07T03:31:34;3.13;;;2.70;;
32790;SDS011;19143;59.322;14.502;2023-09-07T03:34:01;5.83;;;3.23;;
32790;SDS011;19143;59.322;14.502;2023-09-07T03:36:27;4.03;;;3.00;;
32790;SDS011;19143;59.322;14.502;2023-09-07T03:38:55;3.00;;;2.90;;
32790;SDS011;19143;59.322;14.502;2023-09-07T03:41:23;3.57;;;2.63;;
32790;SDS011;19143;59.322;14.502;2023-09-07T03:43:55;4.50;;;3.30;;
32790;SDS011;19143;59.322;14.502;2023-09-07T03:46:21;4.10;;;3.27;;
32790;SDS011;19143;59.322;14.502;2023-09-07T03:48:48;4.23;;;3.00;;
32790;SDS011;19143;59.322;14.502;2023-09-07T03:51:14;4.90;;;2.90;;
32790;SDS011;19143;59.322;14.502;2023-09-07T03:53:41;9.20;;;3.33;;
32790;SDS011;19143;59.322;14.502;2023-09-07T03:56:09;3.20;;;3.00;;
32790;SDS011;19143;59.322;14.502;2023-09-07T03:58:37;5.17;;;3.07;;
32790;SDS011;19143;59.322;14.502;2023-09-07T04:01:03;7.23;;;3.50;;
32790;SDS011;19143;59.322;14.502;2023-09-07T04:03:30;4.70;;;3.20;;
32790;SDS011;19143;59.322;14.502;2023-09-07T04:05:57;6.87;;;3.30;;
32790;SDS011;19143;59.322;14.502;2023-09-07T04:08:23;3.30;;;3.00;;
32790;SDS011;19143;59.322;14.502;2023-09-07T04:10:50;4.23;;;3.10;;
32790;SDS011;19143;59.322;14.502;2023-09-07T04:13:18;5.03;;;3.53;;
32790;SDS011;19143;59.322;14.502;2023-09-07T04:15:44;3.47;;;3.20;;
32790;SDS011;19143;59.322;14.502;2023-09-07T04:18:11;3.83;;;3.00;;
32790;SDS011;19143;59.322;14.502;2023-09-07T04:20:40;3.60;;;3.30;;
32790;SDS011;19143;59.322;14.502;2023-09-07T04:23:06;4.50;;;3.30;;
32790;SDS011;19143;59.322;14.502;2023-09-07T04:25:36;3.97;;;3.30;;
32790;SDS011;19143;59.322;14.502;2023-09-07T04:28:04;3.47;;;3.20;;
32790;SDS011;19143;59.322;14.502;2023-09-07T04:30:36;3.63;;;3.17;;
32790;SDS011;19143;59.322;14.502;2023-09-07T04:33:03;5.70;;;3.73;;
32790;SDS011;19143;59.322;14.502;2023-09-07T04:35:30;3.53;;;3.30;;
32790;SDS011;19143;59.322;14.502;2023-09-07T04:37:57;3.90;;;3.50;;
32790;SDS011;19143;59.322;14.502;2023-09-07T04:40:24;4.27;;;3.57;;
32790;SDS011;19143;59.322;14.502;2023-09-07T04:42:50;3.70;;;3.40;;
32790;SDS011;19143;59.322;14.502;2023-09-07T04:45:17;4.03;;;3.60;;
32790;SDS011;19143;59.322;14.502;2023-09-07T04:47:45;5.93;;;3.53;;
32790;SDS011;19143;59.322;14.502;2023-09-07T04:50:12;4.23;;;3.30;;
32790;SDS011;19143;59.322;14.502;2023-09-07T04:52:39;3.73;;;3.40;;
32790;SDS011;19143;59.322;14.502;2023-09-07T04:55:06;3.60;;;3.30;;
32790;SDS011;19143;59.322;14.502;2023-09-07T04:57:33;11.13;;;3.97;;
32790;SDS011;19143;59.322;14.502;2023-09-07T05:00:00;5.07;;;4.00;;
32790;SDS011;19143;59.322;14.502;2023-09-07T05:02:26;5.67;;;3.70;;
32790;SDS011;19143;59.322;14.502;2023-09-07T05:04:54;6.83;;;3.47;;
32790;SDS011;19143;59.322;14.502;2023-09-07T05:07:22;6.53;;;4.03;;
32790;SDS011;19143;59.322;14.502;2023-09-07T05:09:54;7.33;;;3.90;;
32790;SDS011;19143;59.322;14.502;2023-09-07T05:12:21;9.10;;;4.23;;
32790;SDS011;19143;59.322;14.502;2023-09-07T05:14:47;5.77;;;3.90;;
32790;SDS011;19143;59.322;14.502;2023-09-07T05:17:14;4.47;;;4.10;;
32790;SDS011;19143;59.322;14.502;2023-09-07T05:19:40;6.53;;;3.93;;
32790;SDS011;19143;59.322;14.502;2023-09-07T05:22:08;8.40;;;4.00;;
32790;SDS011;19143;59.322;14.502;2023-09-07T05:24:37;4.87;;;4.40;;
32790;SDS011;19143;59.322;14.502;2023-09-07T05:27:04;6.30;;;4.13;;
32790;SDS011;19143;59.322;14.502;2023-09-07T05:29:31;5.07;;;4.20;;
32790;SDS011;19143;59.322;14.502;2023-09-07T05:31:57;6.60;;;4.33;;
32790;SDS011;19143;59.322;14.502;2023-09-07T05:34:24;6.57;;;3.93;;
32790;SDS011;19143;59.322;14.502;2023-09-07T05:36:50;4.33;;;4.03;;
32790;SDS011;19143;59.322;14.502;2023-09-07T05:39:18;8.33;;;4.83;;
32790;SDS011;19143;59.322;14.502;2023-09-07T05:41:45;7.77;;;4.60;;
32790;SDS011;19143;59.322;14.502;2023-09-07T05:44:11;11.63;;;5.30;;
32790;SDS011;19143;59.322;14.502;2023-09-07T05:46:38;7.63;;;4.67;;
32790;SDS011;19143;59.322;14.502;2023-09-07T05:49:04;9.83;;;4.77;;
32790;SDS011;19143;59.322;14.502;2023-09-07T05:51:31;8.10;;;4.90;;
32790;SDS011;19143;59.322;14.502;2023-09-07T05:53:58;9.77;;;4.80;;
32790;SDS011;19143;59.322;14.502;2023-09-07T05:56:25;8.53;;;4.63;;
32790;SDS011;19143;59.322;14.502;2023-09-07T05:58:52;9.37;;;5.00;;
32790;SDS011;19143;59.322;14.502;2023-09-07T06:01:18;8.37;;;5.17;;
32790;SDS011;19143;59.322;14.502;2023-09-07T06:03:45;9.30;;;4.87;;
32790;SDS011;19143;59.322;14.502;2023-09-07T06:06:11;6.37;;;4.80;;
32790;SDS011;19143;59.322;14.502;2023-09-07T06:08:38;7.70;;;5.07;;
32790;SDS011;19143;59.322;14.502;2023-09-07T06:11:05;10.03;;;5.37;;
32790;SDS011;19143;59.322;14.502;2023-09-07T06:13:33;6.27;;;4.87;;
32790;SDS011;19143;59.322;14.502;2023-09-07T06:15:59;9.03;;;5.37;;
32790;SDS011;19143;59.322;14.502;2023-09-07T06:18:29;6.77;;;4.90;;
32790;SDS011;19143;59.322;14.502;2023-09-07T06:20:55;10.10;;;5.60;;
32790;SDS011;19143;59.322;14.502;2023-09-07T06:23:22;6.23;;;5.10;;
32790;SDS011;19143;59.322;14.502;2023-09-07T06:25:48;6.17;;;5.50;;
32790;SDS011;19143;59.322;14.502;2023-09-07T06:28:15;7.87;;;5.90;;
32790;SDS011;19143;59.322;14.502;2023-09-07T06:30:43;6.00;;;4.97;;
32790;SDS011;19143;59.322;14.502;2023-09-07T06:33:09;5.37;;;4.87;;
32790;SDS011;19143;59.322;14.502;2023-09-07T06:35:36;9.37;;;4.80;;
32790;SDS011;19143;59.322;14.502;2023-09-07T06:38:02;5.40;;;4.50;;
32790;SDS011;19143;59.322;14.502;2023-09-07T06:40:29;4.90;;;4.17;;
32790;SDS011;19143;59.322;14.502;2023-09-07T06:42:55;6.37;;;4.60;;
32790;SDS011;19143;59.322;14.502;2023-09-07T06:45:23;8.77;;;4.60;;
32790;SDS011;19143;59.322;14.502;2023-09-07T06:47:54;6.60;;;4.63;;
32790;SDS011;19143;59.322;14.502;2023-09-07T06:50:21;7.03;;;5.20;;
32790;SDS011;19143;59.322;14.502;2023-09-07T06:52:47;9.03;;;4.90;;
32790;SDS011;19143;59.322;14.502;2023-09-07T06:55:14;4.63;;;4.23;;
32790;SDS011;19143;59.322;14.502;2023-09-07T06:57:46;8.23;;;4.50;;
32790;SDS011;19143;59.322;14.502;2023-09-07T07:00:14;4.90;;;4.40;;
32790;SDS011;19143;59.322;14.502;2023-09-07T07:02:41;8.13;;;4.93;;
32790;SDS011;19143;59.322;14.502;2023-09-07T07:05:16;5.13;;;4.63;;
32790;SDS011;19143;59.322;14.502;2023-09-07T07:07:42;5.50;;;4.90;;
32790;SDS011;19143;59.322;14.502;2023-09-07T07:10:09;5.07;;;4.67;;
32790;SDS011;19143;59.322;14.502;2023-09-07T07:12:35;5.07;;;4.57;;
32790;SDS011;19143;59.322;14.502;2023-09-07T07:15:03;7.70;;;4.43;;
32790;SDS011;19143;59.322;14.502;2023-09-07T07:17:30;11.03;;;4.90;;
32790;SDS011;19143;59.322;14.502;2023-09-07T07:19:56;6.13;;;4.13;;
32790;SDS011;19143;59.322;14.502;2023-09-07T07:22:24;6.70;;;4.27;;
32790;SDS011;19143;59.322;14.502;2023-09-07T07:24:52;5.97;;;4.30;;
32790;SDS011;19143;59.322;14.502;2023-09-07T07:27:19;8.20;;;4.20;;
32790;SDS011;19143;59.322;14.502;2023-09-07T07:29:52;8.13;;;4.40;;
32790;SDS011;19143;59.322;14.502;2023-09-07T07:32:22;6.13;;;4.60;;
32790;SDS011;19143;59.322;14.502;2023-09-07T07:34:51;5.13;;;4.57;;
32790;SDS011;19143;59.322;14.502;2023-09-07T07:37:17;5.93;;;4.10;;
32790;SDS011;19143;59.322;14.502;2023-09-07T07:39:45;6.20;;;4.10;;
32790;SDS011;19143;59.322;14.502;2023-09-07T07:42:12;4.67;;;4.27;;
32790;SDS011;19143;59.322;14.502;2023-09-07T07:44:39;6.23;;;4.50;;
32790;SDS011;19143;59.322;14.502;2023-09-07T07:47:06;11.23;;;4.63;;
32790;SDS011;19143;59.322;14.502;2023-09-07T07:49:33;5.17;;;4.67;;
32790;SDS011;19143;59.322;14.502;2023-09-07T07:51:59;9.20;;;5.43;;
32790;SDS011;19143;59.322;14.502;2023-09-07T07:54:26;5.83;;;4.60;;
32790;SDS011;19143;59.322;14.502;2023-09-07T07:57:03;11.37;;;5.50;;
32790;SDS011;19143;59.322;14.502;2023-09-07T07:59:30;7.40;;;5.00;;
32790;SDS011;19143;59.322;14.502;2023-09-07T08:01:57;5.73;;;4.60;;
32790;SDS011;19143;59.322;14.502;2023-09-07T08:04:24;5.67;;;5.13;;
32790;SDS011;19143;59.322;14.502;2023-09-07T08:06:52;7.90;;;4.70;;
32790;SDS011;19143;59.322;14.502;2023-09-07T08:09:23;6.70;;;4.60;;
32790;SDS011;19143;59.322;14.502;2023-09-07T08:11:49;5.77;;;5.23;;
32790;SDS011;19143;59.322;14.502;2023-09-07T08:14:18;6.77;;;5.57;;
32790;SDS011;19143;59.322;14.502;2023-09-07T08:16:47;8.70;;;5.40;;
32790;SDS011;19143;59.322;14.502;2023-09-07T08:19:13;6.13;;;5.53;;
32790;SDS011;19143;59.322;14.502;2023-09-07T08:21:40;9.20;;;5.10;;
32790;SDS011;19143;59.322;14.502;2023-09-07T08:24:07;7.07;;;5.20;;
32790;SDS011;19143;59.322;14.502;2023-09-07T08:26:35;6.70;;;4.67;;
32790;SDS011;19143;59.322;14.502;2023-09-07T08:29:01;6.40;;;5.17;;
32790;SDS011;19143;59.322;14.502;2023-09-07T08:31:32;6.13;;;5.33;;
32790;SDS011;19143;59.322;14.502;2023-09-07T08:33:58;7.70;;;6.03;;
32790;SDS011;19143;59.322;14.502;2023-09-07T08:36:28;5.97;;;5.40;;
32790;SDS011;19143;59.322;14.502;2023-09-07T08:38:57;7.30;;;6.03;;
32790;SDS011;19143;59.322;14.502;2023-09-07T08:41:26;11.33;;;6.47;;
32790;SDS011;19143;59.322;14.502;2023-09-07T08:43:53;6.27;;;5.70;;
32790;SDS011;19143;59.322;14.502;2023-09-07T08:46:20;8.37;;;6.40;;
32790;SDS011;19143;59.322;14.502;2023-09-07T08:48:50;7.47;;;6.27;;
32790;SDS011;19143;59.322;14.502;2023-09-07T08:51:17;11.97;;;6.37;;
32790;SDS011;19143;59.322;14.502;2023-09-07T08:53:44;10.47;;;6.67;;
32790;SDS011;19143;59.322;14.502;2023-09-07T08:56:12;8.70;;;6.50;;
32790;SDS011;19143;59.322;14.502;2023-09-07T08:58:39;11.47;;;6.47;;
32790;SDS011;19143;59.322;14.502;2023-09-07T09:01:06;11.20;;;6.20;;
32790;SDS011;19143;59.322;14.502;2023-09-07T09:03:35;12.03;;;5.80;;
32790;SDS011;19143;59.322;14.502;2023-09-07T09:06:07;16.63;;;7.83;;
32790;SDS011;19143;59.322;14.502;2023-09-07T09:08:43;12.40;;;7.53;;
32790;SDS011;19143;59.322;14.502;2023-09-07T09:11:10;12.67;;;7.80;;
32790;SDS011;19143;59.322;14.502;2023-09-07T09:13:36;11.57;;;8.20;;
32790;SDS011;19143;59.322;14.502;2023-09-07T09:16:03;11.30;;;8.43;;
32790;SDS011;19143;59.322;14.502;2023-09-07T09:18:30;12.10;;;7.87;;
32790;SDS011;19143;59.322;14.502;2023-09-07T09:20:56;9.70;;;7.73;;
32790;SDS011;19143;59.322;14.502;2023-09-07T09:23:29;15.10;;;7.60;;
32790;SDS011;19143;59.322;14.502;2023-09-07T09:26:01;18.17;;;8.30;;
32790;SDS011;19143;59.322;14.502;2023-09-07T09:28:32;11.10;;;7.73;;
32790;SDS011;19143;59.322;14.502;2023-09-07T09:30:58;12.30;;;8.17;;
32790;SDS011;19143;59.322;14.502;2023-09-07T09:33:25;17.73;;;8.30;;
32790;SDS011;19143;59.322;14.502;2023-09-07T09:35:53;11.53;;;8.33;;
32790;SDS011;19143;59.322;14.502;2023-09-07T09:38:19;10.93;;;7.17;;
32790;SDS011;19143;59.322;14.502;2023-09-07T09:40:47;17.47;;;8.30;;
32790;SDS011;19143;59.322;14.502;2023-09-07T09:43:14;12.20;;;7.33;;
32790;SDS011;19143;59.322;14.502;2023-09-07T09:45:41;15.47;;;8.57;;
32790;SDS011;19143;59.322;14.502;2023-09-07T09:48:09;13.90;;;8.50;;
32790;SDS011;19143;59.322;14.502;2023-09-07T09:50:37;12.80;;;7.07;;
32790;SDS011;19143;59.322;14.502;2023-09-07T09:53:05;14.83;;;7.70;;
32790;SDS011;19143;59.322;14.502;2023-09-07T09:55:32;17.13;;;8.00;;
32790;SDS011;19143;59.322;14.502;2023-09-07T09:58:01;15.77;;;7.83;;
32790;SDS011;19143;59.322;14.502;2023-09-07T10:00:28;10.30;;;7.50;;
32790;SDS011;19143;59.322;14.502;2023-09-07T10:02:57;14.07;;;7.90;;
32790;SDS011;19143;59.322;14.502;2023-09-07T10:05:25;11.73;;;6.77;;
32790;SDS011;19143;59.322;14.502;2023-09-07T10:07:52;9.53;;;7.07;;
32790;SDS011;19143;59.322;14.502;2023-09-07T10:10:19;12.03;;;6.73;;
32790;SDS011;19143;59.322;14.502;2023-09-07T10:12:50;10.13;;;6.60;;
32790;SDS011;19143;59.322;14.502;2023-09-07T10:15:26;8.57;;;6.40;;
32790;SDS011;19143;59.322;14.502;2023-09-07T10:18:02;8.53;;;6.30;;
32790;SDS011;19143;59.322;14.502;2023-09-07T10:20:29;8.77;;;6.33;;
32790;SDS011;19143;59.322;14.502;2023-09-07T10:23:04;6.20;;;5.60;;
32790;SDS011;19143;59.322;14.502;2023-09-07T10:25:30;7.30;;;6.30;;
32790;SDS011;19143;59.322;14.502;2023-09-07T10:27:57;9.67;;;6.80;;
32790;SDS011;19143;59.322;14.502;2023-09-07T10:30:26;7.47;;;6.50;;
32790;SDS011;19143;59.322;14.502;2023-09-07T10:32:53;9.00;;;7.07;;
32790;SDS011;19143;59.322;14.502;2023-09-07T10:35:19;10.83;;;7.17;;
32790;SDS011;19143;59.322;14.502;2023-09-07T10:37:51;7.30;;;6.50;;
32790;SDS011;19143;59.322;14.502;2023-09-07T10:40:21;7.10;;;6.40;;
32790;SDS011;19143;59.322;14.502;2023-09-07T10:42:48;8.10;;;6.10;;
32790;SDS011;19143;59.322;14.502;2023-09-07T10:45:15;9.17;;;6.23;;
32790;SDS011;19143;59.322;14.502;2023-09-07T10:47:46;9.50;;;7.17;;
32790;SDS011;19143;59.322;14.502;2023-09-07T10:50:15;9.47;;;7.10;;
32790;SDS011;19143;59.322;14.502;2023-09-07T10:52:42;9.50;;;7.47;;
32790;SDS011;19143;59.322;14.502;2023-09-07T10:55:12;12.83;;;6.87;;
32790;SDS011;19143;59.322;14.502;2023-09-07T10:57:42;10.33;;;7.60;;
32790;SDS011;19143;59.322;14.502;2023-09-07T11:00:12;11.77;;;7.50;;
32790;SDS011;19143;59.322;14.502;2023-09-07T11:02:40;7.97;;;6.83;;
32790;SDS011;19143;59.322;14.502;2023-09-07T11:05:17;12.47;;;7.27;;
32790;SDS011;19143;59.322;14.502;2023-09-07T11:07:43;10.67;;;6.70;;
32790;SDS011;19143;59.322;14.502;2023-09-07T11:10:20;9.80;;;6.20;;
32790;SDS011;19143;59.322;14.502;2023-09-07T11:12:47;8.37;;;7.03;;
32790;SDS011;19143;59.322;14.502;2023-09-07T11:15:28;13.93;;;7.33;;
32790;SDS011;19143;59.322;14.502;2023-09-07T11:18:10;10.90;;;7.40;;
32790;SDS011;19143;59.322;14.502;2023-09-07T11:20:41;7.67;;;6.87;;
32790;SDS011;19143;59.322;14.502;2023-09-07T11:23:08;8.83;;;7.67;;
32790;SDS011;19143;59.322;14.502;2023-09-07T11:25:35;9.63;;;6.57;;
32790;SDS011;19143;59.322;14.502;2023-09-07T11:28:05;8.60;;;7.07;;
32790;SDS011;19143;59.322;14.502;2023-09-07T11:30:32;10.93;;;7.03;;
32790;SDS011;19143;59.322;14.502;2023-09-07T11:33:02;9.40;;;7.23;;
32790;SDS011;19143;59.322;14.502;2023-09-07T11:35:28;8.13;;;6.53;;
32790;SDS011;19143;59.322;14.502;2023-09-07T11:37:58;8.73;;;6.33;;
32790;SDS011;19143;59.322;14.502;2023-09-07T11:40:25;10.63;;;7.13;;
32790;SDS011;19143;59.322;14.502;2023-09-07T11:42:52;10.87;;;7.50;;
32790;SDS011;19143;59.322;14.502;2023-09-07T11:45:19;12.67;;;6.40;;
32790;SDS011;19143;59.322;14.502;2023-09-07T11:48:02;9.27;;;6.40;;
32790;SDS011;19143;59.322;14.502;2023-09-07T11:50:29;8.77;;;6.30;;
32790;SDS011;19143;59.322;14.502;2023-09-07T11:52:57;9.73;;;6.23;;
32790;SDS011;19143;59.322;14.502;2023-09-07T11:55:24;7.27;;;5.50;;
32790;SDS011;19143;59.322;14.502;2023-09-07T11:57:51;8.70;;;6.10;;
32790;SDS011;19143;59.322;14.502;2023-09-07T12:00:18;12.00;;;6.00;;
32790;SDS011;19143;59.322;14.502;2023-09-07T12:02:44;6.73;;;5.47;;
32790;SDS011;19143;59.322;14.502;2023-09-07T12:05:16;5.80;;;5.20;;
32790;SDS011;19143;59.322;14.502;2023-09-07T12:07:44;6.20;;;5.40;;
32790;SDS011;19143;59.322;14.502;2023-09-07T12:10:12;6.33;;;5.73;;
32790;SDS011;19143;59.322;14.502;2023-09-07T12:12:41;5.80;;;5.30;;
32790;SDS011;19143;59.322;14.502;2023-09-07T12:15:08;8.60;;;5.40;;
32790;SDS011;19143;59.322;14.502;2023-09-07T12:17:42;7.20;;;5.17;;
32790;SDS011;19143;59.322;14.502;2023-09-07T12:20:09;5.13;;;4.73;;
32790;SDS011;19143;59.322;14.502;2023-09-07T12:22:38;7.17;;;4.83;;
32790;SDS011;19143;59.322;14.502;2023-09-07T12:25:06;9.23;;;4.80;;
32790;SDS011;19143;59.322;14.502;2023-09-07T12:27:35;5.17;;;4.60;;
32790;SDS011;19143;59.322;14.502;2023-09-07T12:30:02;5.83;;;4.50;;
32790;SDS011;19143;59.322;14.502;2023-09-07T12:32:31;4.90;;;4.50;;
32790;SDS011;19143;59.322;14.502;2023-09-07T12:34:58;5.07;;;4.57;;
32790;SDS011;19143;59.322;14.502;2023-09-07T12:37:25;4.87;;;4.47;;
32790;SDS011;19143;59.322;14.502;2023-09-07T12:39:51;6.03;;;4.93;;
32790;SDS011;19143;59.322;14.502;2023-09-07T12:42:18;8.27;;;4.53;;
32790;SDS011;19143;59.322;14.502;2023-09-07T12:44:46;5.40;;;4.87;;
32790;SDS011;19143;59.322;14.502;2023-09-07T12:47:12;6.40;;;4.47;;
32790;SDS011;19143;59.322;14.502;2023-09-07T12:49:39;5.90;;;4.47;;
32790;SDS011;19143;59.322;14.502;2023-09-07T12:52:07;5.20;;;4.80;;
32790;SDS011;19143;59.322;14.502;2023-09-07T12:54:36;6.37;;;4.90;;
32790;SDS011;19143;59.322;14.502;2023-09-07T12:57:03;7.83;;;4.80;;
32790;SDS011;19143;59.322;14.502;2023-09-07T12:59:29;7.17;;;4.70;;
32790;SDS011;19143;59.322;14.502;2023-09-07T13:01:57;6.60;;;4.27;;
32790;SDS011;19143;59.322;14.502;2023-09-07T13:04:24;4.83;;;4.43;;
32790;SDS011;19143;59.322;14.502;2023-09-07T13:06:50;4.77;;;4.17;;
32790;SDS011;19143;59.322;14.502;2023-09-07T13:09:17;5.73;;;4.37;;
32790;SDS011;19143;59.322;14.502;2023-09-07T13:11:45;6.17;;;4.60;;
32790;SDS011;19143;59.322;14.502;2023-09-07T13:14:11;5.00;;;4.50;;
32790;SDS011;19143;59.322;14.502;2023-09-07T13:16:38;4.50;;;4.20;;
32790;SDS011;19143;59.322;14.502;2023-09-07T13:19:06;4.30;;;3.90;;
32790;SDS011;19143;59.322;14.502;2023-09-07T13:21:33;4.50;;;4.10;;
32790;SDS011;19143;59.322;14.502;2023-09-07T13:23:59;5.47;;;4.00;;
32790;SDS011;19143;59.322;14.502;2023-09-07T13:26:26;4.77;;;4.27;;
32790;SDS011;19143;59.322;14.502;2023-09-07T13:28:52;4.57;;;4.17;;
32790;SDS011;19143;59.322;14.502;2023-09-07T13:31:18;4.90;;;4.50;;
32790;SDS011;19143;59.322;14.502;2023-09-07T13:33:45;4.40;;;4.10;;
32790;SDS011;19143;59.322;14.502;2023-09-07T13:36:13;4.47;;;4.10;;
32790;SDS011;19143;59.322;14.502;2023-09-07T13:38:40;4.10;;;3.90;;
32790;SDS011;19143;59.322;14.502;2023-09-07T13:41:06;6.87;;;4.13;;
32790;SDS011;19143;59.322;14.502;2023-09-07T13:43:33;8.20;;;3.93;;
32790;SDS011;19143;59.322;14.502;2023-09-07T13:45:59;6.23;;;3.60;;
32790;SDS011;19143;59.322;14.502;2023-09-07T13:48:26;6.43;;;3.90;;
32790;SDS011;19143;59.322;14.502;2023-09-07T13:50:52;4.50;;;4.07;;
32790;SDS011;19143;59.322;14.502;2023-09-07T13:53:20;4.23;;;3.83;;
32790;SDS011;19143;59.322;14.502;2023-09-07T13:55:47;4.27;;;3.97;;
32790;SDS011;19143;59.322;14.502;2023-09-07T13:58:15;6.77;;;4.23;;
32790;SDS011;19143;59.322;14.502;2023-09-07T14:00:41;4.07;;;3.73;;
32790;SDS011;19143;59.322;14.502;2023-09-07T14:03:08;5.40;;;3.80;;
32790;SDS011;19143;59.322;14.502;2023-09-07T14:05:34;4.57;;;4.17;;
32790;SDS011;19143;59.322;14.502;2023-09-07T14:08:02;5.97;;;3.87;;
32790;SDS011;19143;59.322;14.502;2023-09-07T14:10:30;4.73;;;4.27;;
32790;SDS011;19143;59.322;14.502;2023-09-07T14:12:57;4.77;;;4.03;;
32790;SDS011;19143;59.322;14.502;2023-09-07T14:18:14;6.57;;;4.07;;
32790;SDS011;19143;59.322;14.502;2023-09-07T14:20:47;4.40;;;4.03;;
32790;SDS011;19143;59.322;14.502;2023-09-07T14:23:13;4.17;;;3.53;;
32790;SDS011;19143;59.322;14.502;2023-09-07T14:25:42;5.67;;;4.00;;
32790;SDS011;19143;59.322;14.502;2023-09-07T14:28:10;4.47;;;4.07;;
32790;SDS011;19143;59.322;14.502;2023-09-07T14:30:36;5.10;;;3.63;;
32790;SDS011;19143;59.322;14.502;2023-09-07T14:33:03;4.73;;;4.27;;
32790;SDS011;19143;59.322;14.502;2023-09-07T14:35:30;4.47;;;3.47;;
32790;SDS011;19143;59.322;14.502;2023-09-07T14:37:56;4.07;;;3.77;;